sensor_id;sensor_type;location;lat;lon;timestamp;temperature;humidity
21830;DHT22;11077;50.264;6.798;2023-03-05T00:02:21;1.90;99.90
21830;DHT22;11077;50.264;6.798;2023-03-05T00:04:48;1.90;99.90
21830;DHT22;11077;50.264;6.798;2023-03-05T00:07:15;1.90;99.90
21830;DHT22;11077;50.264;6.798;2023-03-05T00:09:42;1.90;99.90
21830;DHT22;11077;50.264;6.798;2023-03-05T00:12:09;1.90;99.90
21830;DHT22;11077;50.264;6.798;2023-03-05T00:14:37;1.80;99.90
21830;DHT22;11077;50.264;6.798;2023-03-05T00:17:04;1.90;99.90
21830;DHT22;11077;50.264;6.798;2023-03-05T00:19:32;1.80;99.90
21830;DHT22;11077;50.264;6.798;2023-03-05T00:22:00;1.80;99.90
21830;DHT22;11077;50.264;6.798;2023-03-05T00:24:27;1.80;99.90
21830;DHT22;11077;50.264;6.798;2023-03-05T00:26:54;1.80;99.90
21830;DHT22;11077;50.264;6.798;2023-03-05T00:29:21;1.70;99.90
21830;DHT22;11077;50.264;6.798;2023-03-05T00:31:49;1.70;99.90
21830;DHT22;11077;50.264;6.798;2023-03-05T00:34:17;1.70;99.90
21830;DHT22;11077;50.264;6.798;2023-03-05T00:36:48;1.70;99.90
21830;DHT22;11077;50.264;6.798;2023-03-05T00:39:17;1.70;99.90
21830;DHT22;11077;50.264;6.798;2023-03-05T00:41:45;1.70;99.90
21830;DHT22;11077;50.264;6.798;2023-03-05T00:44:12;1.70;99.90
21830;DHT22;11077;50.264;6.798;2023-03-05T00:46:40;1.70;99.90
21830;DHT22;11077;50.264;6.798;2023-03-05T00:49:07;1.70;99.90
21830;DHT22;11077;50.264;6.798;2023-03-05T00:51:34;1.60;99.90
21830;DHT22;11077;50.264;6.798;2023-03-05T00:54:03;1.60;99.90
21830;DHT22;11077;50.264;6.798;2023-03-05T00:56:31;1.60;99.90
21830;DHT22;11077;50.264;6.798;2023-03-05T00:58:58;1.60;99.90
21830;DHT22;11077;50.264;6.798;2023-03-05T01:01:26;1.60;99.90
21830;DHT22;11077;50.264;6.798;2023-03-05T01:03:53;1.60;99.90
21830;DHT22;11077;50.264;6.798;2023-03-05T01:06:23;1.50;99.90
21830;DHT22;11077;50.264;6.798;2023-03-05T01:08:50;1.50;99.90
21830;DHT22;11077;50.264;6.798;2023-03-05T01:11:18;1.50;99.90
21830;DHT22;11077;50.264;6.798;2023-03-05T01:13:45;1.50;99.90
21830;DHT22;11077;50.264;6.798;2023-03-05T01:16:13;1.50;99.90
21830;DHT22;11077;50.264;6.798;2023-03-05T01:18:40;1.40;99.90
21830;DHT22;11077;50.264;6.798;2023-03-05T01:21:07;1.40;99.90
21830;DHT22;11077;50.264;6.798;2023-03-05T01:23:35;1.40;99.90
21830;DHT22;11077;50.264;6.798;2023-03-05T01:26:04;1.40;99.90
21830;DHT22;11077;50.264;6.798;2023-03-05T01:28:34;1.40;99.90
21830;DHT22;11077;50.264;6.798;2023-03-05T01:31:06;1.40;99.90
21830;DHT22;11077;50.264;6.798;2023-03-05T01:33:34;1.40;99.90
21830;DHT22;11077;50.264;6.798;2023-03-05T01:36:01;1.40;99.90
21830;DHT22;11077;50.264;6.798;2023-03-05T01:38:28;1.40;99.90
21830;DHT22;11077;50.264;6.798;2023-03-05T01:40:56;1.40;99.90
21830;DHT22;11077;50.264;6.798;2023-03-05T01:43:26;1.40;99.90
21830;DHT22;11077;50.264;6.798;2023-03-05T01:46:29;1.40;99.90
21830;DHT22;11077;50.264;6.798;2023-03-05T01:49:18;1.40;99.90
21830;DHT22;11077;50.264;6.798;2023-03-05T01:52:00;1.40;99.90
21830;DHT22;11077;50.264;6.798;2023-03-05T01:54:32;1.40;99.90
21830;DHT22;11077;50.264;6.798;2023-03-05T01:57:03;1.40;99.90
21830;DHT22;11077;50.264;6.798;2023-03-05T01:59:31;1.40;99.90
21830;DHT22;11077;50.264;6.798;2023-03-05T02:02:00;1.40;99.90
21830;DHT22;11077;50.264;6.798;2023-03-05T02:04:33;1.30;99.90
21830;DHT22;11077;50.264;6.798;2023-03-05T02:07:02;1.30;99.90
21830;DHT22;11077;50.264;6.798;2023-03-05T02:09:29;1.30;99.90
21830;DHT22;11077;50.264;6.798;2023-03-05T02:11:57;1.30;99.90
21830;DHT22;11077;50.264;6.798;2023-03-05T02:14:25;1.30;99.90
21830;DHT22;11077;50.264;6.798;2023-03-05T02:16:52;1.30;99.90
21830;DHT22;11077;50.264;6.798;2023-03-05T02:19:21;1.30;99.90
21830;DHT22;11077;50.264;6.798;2023-03-05T02:21:49;1.20;99.90
21830;DHT22;11077;50.264;6.798;2023-03-05T02:24:31;1.20;99.90
21830;DHT22;11077;50.264;6.798;2023-03-05T02:26:59;1.20;99.90
21830;DHT22;11077;50.264;6.798;2023-03-05T02:29:28;1.20;99.90
21830;DHT22;11077;50.264;6.798;2023-03-05T02:31:56;1.20;99.90
21830;DHT22;11077;50.264;6.798;2023-03-05T02:34:23;1.20;99.90
21830;DHT22;11077;50.264;6.798;2023-03-05T02:36:52;1.20;99.90
21830;DHT22;11077;50.264;6.798;2023-03-05T02:39:21;1.20;99.90
21830;DHT22;11077;50.264;6.798;2023-03-05T02:41:49;1.20;99.90
21830;DHT22;11077;50.264;6.798;2023-03-05T02:44:17;1.20;99.90
21830;DHT22;11077;50.264;6.798;2023-03-05T02:46:44;1.10;99.90
21830;DHT22;11077;50.264;6.798;2023-03-05T02:49:11;1.10;99.90
21830;DHT22;11077;50.264;6.798;2023-03-05T02:51:38;1.10;99.90
21830;DHT22;11077;50.264;6.798;2023-03-05T02:54:08;1.10;99.90
21830;DHT22;11077;50.264;6.798;2023-03-05T02:56:35;1.10;99.90
21830;DHT22;11077;50.264;6.798;2023-03-05T02:59:04;1.10;99.90
21830;DHT22;11077;50.264;6.798;2023-03-05T03:01:32;1.10;99.90
21830;DHT22;11077;50.264;6.798;2023-03-05T03:03:59;1.10;99.90
21830;DHT22;11077;50.264;6.798;2023-03-05T03:06:26;1.10;99.90
21830;DHT22;11077;50.264;6.798;2023-03-05T03:08:53;1.10;99.90
21830;DHT22;11077;50.264;6.798;2023-03-05T03:11:22;1.10;99.90
21830;DHT22;11077;50.264;6.798;2023-03-05T03:13:49;1.10;99.90
21830;DHT22;11077;50.264;6.798;2023-03-05T03:16:16;1.10;99.90
21830;DHT22;11077;50.264;6.798;2023-03-05T03:18:43;1.10;99.90
21830;DHT22;11077;50.264;6.798;2023-03-05T03:21:16;1.10;99.90
21830;DHT22;11077;50.264;6.798;2023-03-05T03:23:44;1.10;99.90
21830;DHT22;11077;50.264;6.798;2023-03-05T03:26:11;1.00;99.90
21830;DHT22;11077;50.264;6.798;2023-03-05T03:28:39;1.00;99.90
21830;DHT22;11077;50.264;6.798;2023-03-05T03:31:07;1.00;99.90
21830;DHT22;11077;50.264;6.798;2023-03-05T03:33:34;1.00;99.90
21830;DHT22;11077;50.264;6.798;2023-03-05T03:36:02;1.00;99.90
21830;DHT22;11077;50.264;6.798;2023-03-05T03:38:30;1.00;99.90
21830;DHT22;11077;50.264;6.798;2023-03-05T03:40:57;1.00;99.90
21830;DHT22;11077;50.264;6.798;2023-03-05T03:43:24;1.00;99.90
21830;DHT22;11077;50.264;6.798;2023-03-05T03:45:53;1.00;99.90
21830;DHT22;11077;50.264;6.798;2023-03-05T03:48:20;1.00;99.90
21830;DHT22;11077;50.264;6.798;2023-03-05T03:50:47;1.00;99.90
21830;DHT22;11077;50.264;6.798;2023-03-05T03:53:14;1.00;99.90
21830;DHT22;11077;50.264;6.798;2023-03-05T03:55:42;1.00;99.90
21830;DHT22;11077;50.264;6.798;2023-03-05T03:58:11;1.00;99.90
21830;DHT22;11077;50.264;6.798;2023-03-05T04:00:38;1.00;99.90
21830;DHT22;11077;50.264;6.798;2023-03-05T04:03:07;0.90;99.90
21830;DHT22;11077;50.264;6.798;2023-03-05T04:05:34;1.00;99.90
21830;DHT22;11077;50.264;6.798;2023-03-05T04:08:01;0.90;99.90
21830;DHT22;11077;50.264;6.798;2023-03-05T04:10:28;0.90;99.90
21830;DHT22;11077;50.264;6.798;2023-03-05T04:12:56;0.90;99.90
21830;DHT22;11077;50.264;6.798;2023-03-05T04:15:23;0.90;99.90
21830;DHT22;11077;50.264;6.798;2023-03-05T04:17:50;0.90;99.90
21830;DHT22;11077;50.264;6.798;2023-03-05T04:20:19;0.90;99.90
21830;DHT22;11077;50.264;6.798;2023-03-05T04:22:46;0.90;99.90
21830;DHT22;11077;50.264;6.798;2023-03-05T04:25:14;0.90;99.90
21830;DHT22;11077;50.264;6.798;2023-03-05T04:27:41;0.90;99.90
21830;DHT22;11077;50.264;6.798;2023-03-05T04:30:11;0.90;99.90
21830;DHT22;11077;50.264;6.798;2023-03-05T04:32:39;1.00;99.90
21830;DHT22;11077;50.264;6.798;2023-03-05T04:35:07;0.90;99.90
21830;DHT22;11077;50.264;6.798;2023-03-05T04:37:36;0.90;99.90
21830;DHT22;11077;50.264;6.798;2023-03-05T04:40:04;1.00;99.90
21830;DHT22;11077;50.264;6.798;2023-03-05T04:42:31;0.90;99.90
21830;DHT22;11077;50.264;6.798;2023-03-05T04:44:58;1.00;99.90
21830;DHT22;11077;50.264;6.798;2023-03-05T04:47:25;1.00;99.90
21830;DHT22;11077;50.264;6.798;2023-03-05T04:49:52;1.00;99.90
21830;DHT22;11077;50.264;6.798;2023-03-05T04:52:20;1.00;99.90
21830;DHT22;11077;50.264;6.798;2023-03-05T04:54:48;0.90;99.90
21830;DHT22;11077;50.264;6.798;2023-03-05T04:57:15;1.00;99.90
21830;DHT22;11077;50.264;6.798;2023-03-05T04:59:43;1.00;99.90
21830;DHT22;11077;50.264;6.798;2023-03-05T05:02:10;1.00;99.90
21830;DHT22;11077;50.264;6.798;2023-03-05T05:04:37;1.00;99.90
21830;DHT22;11077;50.264;6.798;2023-03-05T05:07:05;0.90;99.90
21830;DHT22;11077;50.264;6.798;2023-03-05T05:09:33;1.00;99.90
21830;DHT22;11077;50.264;6.798;2023-03-05T05:12:02;1.00;99.90
21830;DHT22;11077;50.264;6.798;2023-03-05T05:14:29;1.00;99.90
21830;DHT22;11077;50.264;6.798;2023-03-05T05:16:57;0.90;99.90
21830;DHT22;11077;50.264;6.798;2023-03-05T05:19:24;0.90;99.90
21830;DHT22;11077;50.264;6.798;2023-03-05T05:21:51;0.90;99.90
21830;DHT22;11077;50.264;6.798;2023-03-05T05:24:18;0.90;99.90
21830;DHT22;11077;50.264;6.798;2023-03-05T05:26:45;0.90;99.90
21830;DHT22;11077;50.264;6.798;2023-03-05T05:29:14;0.90;99.90
21830;DHT22;11077;50.264;6.798;2023-03-05T05:31:41;0.90;99.90
21830;DHT22;11077;50.264;6.798;2023-03-05T05:34:10;0.90;99.90
21830;DHT22;11077;50.264;6.798;2023-03-05T05:36:37;0.90;99.90
21830;DHT22;11077;50.264;6.798;2023-03-05T05:39:04;0.90;99.90
21830;DHT22;11077;50.264;6.798;2023-03-05T05:41:32;0.90;99.90
21830;DHT22;11077;50.264;6.798;2023-03-05T05:43:59;0.90;99.90
21830;DHT22;11077;50.264;6.798;2023-03-05T05:46:27;0.90;99.90
21830;DHT22;11077;50.264;6.798;2023-03-05T05:48:54;0.90;99.90
21830;DHT22;11077;50.264;6.798;2023-03-05T05:51:22;0.80;99.90
21830;DHT22;11077;50.264;6.798;2023-03-05T05:53:49;0.80;99.90
21830;DHT22;11077;50.264;6.798;2023-03-05T05:56:17;0.90;99.90
21830;DHT22;11077;50.264;6.798;2023-03-05T05:58:46;0.80;99.90
21830;DHT22;11077;50.264;6.798;2023-03-05T06:01:15;0.80;99.90
21830;DHT22;11077;50.264;6.798;2023-03-05T06:03:43;0.90;99.90
21830;DHT22;11077;50.264;6.798;2023-03-05T06:06:12;0.80;99.90
21830;DHT22;11077;50.264;6.798;2023-03-05T06:08:40;0.80;99.90
21830;DHT22;11077;50.264;6.798;2023-03-05T06:11:08;0.80;99.90
21830;DHT22;11077;50.264;6.798;2023-03-05T06:13:37;0.80;99.90
21830;DHT22;11077;50.264;6.798;2023-03-05T06:16:09;0.80;99.90
21830;DHT22;11077;50.264;6.798;2023-03-05T06:18:38;0.80;99.90
21830;DHT22;11077;50.264;6.798;2023-03-05T06:21:10;0.80;99.90
21830;DHT22;11077;50.264;6.798;2023-03-05T06:23:37;0.80;99.90
21830;DHT22;11077;50.264;6.798;2023-03-05T06:26:06;0.80;99.90
21830;DHT22;11077;50.264;6.798;2023-03-05T06:28:34;0.80;99.90
21830;DHT22;11077;50.264;6.798;2023-03-05T06:31:02;0.80;99.90
21830;DHT22;11077;50.264;6.798;2023-03-05T06:33:29;0.80;99.90
21830;DHT22;11077;50.264;6.798;2023-03-05T06:35:56;0.80;99.90
21830;DHT22;11077;50.264;6.798;2023-03-05T06:38:25;0.80;99.90
21830;DHT22;11077;50.264;6.798;2023-03-05T06:40:52;0.90;99.90
21830;DHT22;11077;50.264;6.798;2023-03-05T06:43:19;0.80;99.90
21830;DHT22;11077;50.264;6.798;2023-03-05T06:45:47;0.80;99.90
21830;DHT22;11077;50.264;6.798;2023-03-05T06:48:14;0.80;99.90
21830;DHT22;11077;50.264;6.798;2023-03-05T06:50:41;0.80;99.90
21830;DHT22;11077;50.264;6.798;2023-03-05T06:53:08;0.80;99.90
21830;DHT22;11077;50.264;6.798;2023-03-05T06:55:37;0.80;99.90
21830;DHT22;11077;50.264;6.798;2023-03-05T06:58:06;0.80;99.90
21830;DHT22;11077;50.264;6.798;2023-03-05T07:00:33;0.90;99.90
21830;DHT22;11077;50.264;6.798;2023-03-05T07:03:01;0.80;99.90
21830;DHT22;11077;50.264;6.798;2023-03-05T07:05:28;0.90;99.90
21830;DHT22;11077;50.264;6.798;2023-03-05T07:07:55;0.80;99.90
21830;DHT22;11077;50.264;6.798;2023-03-05T07:10:22;0.90;99.90
21830;DHT22;11077;50.264;6.798;2023-03-05T07:12:51;0.90;99.90
21830;DHT22;11077;50.264;6.798;2023-03-05T07:15:18;0.90;99.90
21830;DHT22;11077;50.264;6.798;2023-03-05T07:17:45;0.90;99.90
21830;DHT22;11077;50.264;6.798;2023-03-05T07:20:13;0.90;99.90
21830;DHT22;11077;50.264;6.798;2023-03-05T07:22:40;0.90;99.90
21830;DHT22;11077;50.264;6.798;2023-03-05T07:25:08;0.90;99.90
21830;DHT22;11077;50.264;6.798;2023-03-05T07:27:35;0.90;99.90
21830;DHT22;11077;50.264;6.798;2023-03-05T07:30:05;0.90;99.90
21830;DHT22;11077;50.264;6.798;2023-03-05T07:32:34;0.90;99.90
21830;DHT22;11077;50.264;6.798;2023-03-05T07:35:01;0.90;99.90
21830;DHT22;11077;50.264;6.798;2023-03-05T07:37:29;0.90;99.90
21830;DHT22;11077;50.264;6.798;2023-03-05T07:39:56;0.90;99.90
21830;DHT22;11077;50.264;6.798;2023-03-05T07:42:23;0.90;99.90
21830;DHT22;11077;50.264;6.798;2023-03-05T07:45:08;0.90;99.90
21830;DHT22;11077;50.264;6.798;2023-03-05T07:47:35;0.90;99.90
21830;DHT22;11077;50.264;6.798;2023-03-05T07:50:03;0.90;99.90
21830;DHT22;11077;50.264;6.798;2023-03-05T07:52:31;0.90;99.90
21830;DHT22;11077;50.264;6.798;2023-03-05T07:54:58;0.90;99.90
21830;DHT22;11077;50.264;6.798;2023-03-05T07:57:25;0.90;99.90
21830;DHT22;11077;50.264;6.798;2023-03-05T07:59:52;0.90;99.90
21830;DHT22;11077;50.264;6.798;2023-03-05T08:02:21;1.00;99.90
21830;DHT22;11077;50.264;6.798;2023-03-05T08:04:48;1.00;99.90
21830;DHT22;11077;50.264;6.798;2023-03-05T08:07:16;1.00;99.90
21830;DHT22;11077;50.264;6.798;2023-03-05T08:09:43;1.00;99.90
21830;DHT22;11077;50.264;6.798;2023-03-05T08:12:10;1.00;99.90
21830;DHT22;11077;50.264;6.798;2023-03-05T08:14:37;0.90;99.90
21830;DHT22;11077;50.264;6.798;2023-03-05T08:17:05;1.00;99.90
21830;DHT22;11077;50.264;6.798;2023-03-05T08:19:34;1.00;99.90
21830;DHT22;11077;50.264;6.798;2023-03-05T08:22:01;1.00;99.90
21830;DHT22;11077;50.264;6.798;2023-03-05T08:24:28;0.90;99.90
21830;DHT22;11077;50.264;6.798;2023-03-05T08:26:56;0.90;99.90
21830;DHT22;11077;50.264;6.798;2023-03-05T08:29:24;1.00;99.90
21830;DHT22;11077;50.264;6.798;2023-03-05T08:31:51;0.90;99.90
21830;DHT22;11077;50.264;6.798;2023-03-05T08:34:19;0.90;99.90
21830;DHT22;11077;50.264;6.798;2023-03-05T08:36:48;0.80;99.90
21830;DHT22;11077;50.264;6.798;2023-03-05T08:39:15;0.80;99.90
21830;DHT22;11077;50.264;6.798;2023-03-05T08:41:42;0.80;99.90
21830;DHT22;11077;50.264;6.798;2023-03-05T08:44:10;0.80;99.90
21830;DHT22;11077;50.264;6.798;2023-03-05T08:46:38;0.80;99.90
21830;DHT22;11077;50.264;6.798;2023-03-05T08:49:06;0.80;99.90
21830;DHT22;11077;50.264;6.798;2023-03-05T08:51:33;0.80;99.90
21830;DHT22;11077;50.264;6.798;2023-03-05T08:54:03;0.80;99.90
21830;DHT22;11077;50.264;6.798;2023-03-05T08:56:33;0.80;99.90
21830;DHT22;11077;50.264;6.798;2023-03-05T08:59:07;0.80;99.90
21830;DHT22;11077;50.264;6.798;2023-03-05T09:01:41;0.80;99.90
21830;DHT22;11077;50.264;6.798;2023-03-05T09:04:08;0.80;99.90
21830;DHT22;11077;50.264;6.798;2023-03-05T09:06:36;0.80;99.90
21830;DHT22;11077;50.264;6.798;2023-03-05T09:09:07;0.90;99.90
21830;DHT22;11077;50.264;6.798;2023-03-05T09:11:35;0.90;99.90
21830;DHT22;11077;50.264;6.798;2023-03-05T09:14:03;1.00;99.90
21830;DHT22;11077;50.264;6.798;2023-03-05T09:16:30;1.00;99.90
21830;DHT22;11077;50.264;6.798;2023-03-05T09:18:58;1.00;99.90
21830;DHT22;11077;50.264;6.798;2023-03-05T09:21:25;1.10;99.90
21830;DHT22;11077;50.264;6.798;2023-03-05T09:23:53;1.10;99.90
21830;DHT22;11077;50.264;6.798;2023-03-05T09:26:25;1.10;99.90
21830;DHT22;11077;50.264;6.798;2023-03-05T09:28:53;1.10;99.90
21830;DHT22;11077;50.264;6.798;2023-03-05T09:31:20;1.20;99.90
21830;DHT22;11077;50.264;6.798;2023-03-05T09:33:48;1.20;99.90
21830;DHT22;11077;50.264;6.798;2023-03-05T09:36:18;1.30;99.90
21830;DHT22;11077;50.264;6.798;2023-03-05T09:38:45;1.30;99.90
21830;DHT22;11077;50.264;6.798;2023-03-05T09:41:16;1.40;99.90
21830;DHT22;11077;50.264;6.798;2023-03-05T09:43:51;1.50;99.90
21830;DHT22;11077;50.264;6.798;2023-03-05T09:46:28;1.50;99.90
21830;DHT22;11077;50.264;6.798;2023-03-05T09:49:03;1.60;99.90
21830;DHT22;11077;50.264;6.798;2023-03-05T09:51:38;1.70;99.90
21830;DHT22;11077;50.264;6.798;2023-03-05T09:54:12;1.70;99.90
21830;DHT22;11077;50.264;6.798;2023-03-05T09:56:42;1.90;99.90
21830;DHT22;11077;50.264;6.798;2023-03-05T09:59:22;2.00;99.90
21830;DHT22;11077;50.264;6.798;2023-03-05T10:01:52;2.10;99.90
21830;DHT22;11077;50.264;6.798;2023-03-05T10:04:25;2.10;99.90
21830;DHT22;11077;50.264;6.798;2023-03-05T10:06:57;2.30;99.90
21830;DHT22;11077;50.264;6.798;2023-03-05T10:09:36;2.30;99.90
21830;DHT22;11077;50.264;6.798;2023-03-05T10:12:13;2.50;99.90
21830;DHT22;11077;50.264;6.798;2023-03-05T10:14:43;2.50;99.90
21830;DHT22;11077;50.264;6.798;2023-03-05T10:20:33;2.80;99.90
21830;DHT22;11077;50.264;6.798;2023-03-05T10:26:12;2.80;99.90
21830;DHT22;11077;50.264;6.798;2023-03-05T10:28:49;2.90;99.90
21830;DHT22;11077;50.264;6.798;2023-03-05T10:31:38;3.00;99.90
21830;DHT22;11077;50.264;6.798;2023-03-05T10:37:09;3.10;99.90
21830;DHT22;11077;50.264;6.798;2023-03-05T10:39:56;3.10;99.90
21830;DHT22;11077;50.264;6.798;2023-03-05T10:42:31;3.20;99.90
21830;DHT22;11077;50.264;6.798;2023-03-05T10:45:00;3.20;99.90
21830;DHT22;11077;50.264;6.798;2023-03-05T10:47:41;3.20;99.90
21830;DHT22;11077;50.264;6.798;2023-03-05T10:50:16;3.20;99.90
21830;DHT22;11077;50.264;6.798;2023-03-05T10:52:46;3.20;99.90
21830;DHT22;11077;50.264;6.798;2023-03-05T10:55:18;3.20;99.90
21830;DHT22;11077;50.264;6.798;2023-03-05T10:57:46;3.20;99.90
21830;DHT22;11077;50.264;6.798;2023-03-05T11:00:18;3.20;99.90
21830;DHT22;11077;50.264;6.798;2023-03-05T11:02:57;3.20;99.90
21830;DHT22;11077;50.264;6.798;2023-03-05T11:05:39;3.20;99.90
21830;DHT22;11077;50.264;6.798;2023-03-05T11:08:24;3.20;99.90
21830;DHT22;11077;50.264;6.798;2023-03-05T11:11:03;3.10;99.90
21830;DHT22;11077;50.264;6.798;2023-03-05T11:13:31;3.00;99.90
21830;DHT22;11077;50.264;6.798;2023-03-05T11:15:59;3.00;99.90
21830;DHT22;11077;50.264;6.798;2023-03-05T11:18:29;2.90;99.90
21830;DHT22;11077;50.264;6.798;2023-03-05T11:21:18;2.90;99.90
21830;DHT22;11077;50.264;6.798;2023-03-05T11:24:03;3.00;99.90
21830;DHT22;11077;50.264;6.798;2023-03-05T11:26:30;3.10;99.90
21830;DHT22;11077;50.264;6.798;2023-03-05T11:29:00;3.20;99.90
21830;DHT22;11077;50.264;6.798;2023-03-05T11:31:29;3.30;99.90
21830;DHT22;11077;50.264;6.798;2023-03-05T11:34:00;3.30;99.90
21830;DHT22;11077;50.264;6.798;2023-03-05T11:36:30;3.40;99.90
21830;DHT22;11077;50.264;6.798;2023-03-05T11:39:01;3.40;99.90
21830;DHT22;11077;50.264;6.798;2023-03-05T11:41:37;3.40;99.90
21830;DHT22;11077;50.264;6.798;2023-03-05T11:44:10;3.30;99.90
21830;DHT22;11077;50.264;6.798;2023-03-05T11:46:42;3.30;99.90
21830;DHT22;11077;50.264;6.798;2023-03-05T11:49:15;3.30;99.90
21830;DHT22;11077;50.264;6.798;2023-03-05T11:51:51;3.30;99.90
21830;DHT22;11077;50.264;6.798;2023-03-05T11:54:23;3.20;99.90
21830;DHT22;11077;50.264;6.798;2023-03-05T11:56:52;3.20;99.90
21830;DHT22;11077;50.264;6.798;2023-03-05T11:59:23;3.10;99.90
21830;DHT22;11077;50.264;6.798;2023-03-05T12:01:54;3.00;99.90
21830;DHT22;11077;50.264;6.798;2023-03-05T12:04:24;3.00;99.90
21830;DHT22;11077;50.264;6.798;2023-03-05T12:06:54;2.90;99.90
21830;DHT22;11077;50.264;6.798;2023-03-05T12:09:30;2.90;99.90
21830;DHT22;11077;50.264;6.798;2023-03-05T12:12:08;2.90;99.90
21830;DHT22;11077;50.264;6.798;2023-03-05T12:14:43;2.90;99.90
21830;DHT22;11077;50.264;6.798;2023-03-05T12:17:15;2.80;99.90
21830;DHT22;11077;50.264;6.798;2023-03-05T12:19:51;2.80;99.90
21830;DHT22;11077;50.264;6.798;2023-03-05T12:22:23;2.80;99.90
21830;DHT22;11077;50.264;6.798;2023-03-05T12:24:51;2.80;99.90
21830;DHT22;11077;50.264;6.798;2023-03-05T12:27:32;2.80;99.90
21830;DHT22;11077;50.264;6.798;2023-03-05T12:30:00;2.80;99.90
21830;DHT22;11077;50.264;6.798;2023-03-05T12:32:58;2.70;99.90
21830;DHT22;11077;50.264;6.798;2023-03-05T12:35:33;2.60;99.90
21830;DHT22;11077;50.264;6.798;2023-03-05T12:38:17;2.60;99.90
21830;DHT22;11077;50.264;6.798;2023-03-05T12:40:44;2.60;99.90
21830;DHT22;11077;50.264;6.798;2023-03-05T12:43:29;2.60;99.90
21830;DHT22;11077;50.264;6.798;2023-03-05T12:46:22;2.60;99.90
21830;DHT22;11077;50.264;6.798;2023-03-05T12:48:50;2.50;99.90
21830;DHT22;11077;50.264;6.798;2023-03-05T12:51:39;2.50;99.90
21830;DHT22;11077;50.264;6.798;2023-03-05T12:54:35;2.50;99.90
21830;DHT22;11077;50.264;6.798;2023-03-05T12:57:12;2.50;99.90
21830;DHT22;11077;50.264;6.798;2023-03-05T12:59:43;2.50;99.90
21830;DHT22;11077;50.264;6.798;2023-03-05T13:02:22;2.40;99.90
21830;DHT22;11077;50.264;6.798;2023-03-05T13:04:56;2.40;99.90
21830;DHT22;11077;50.264;6.798;2023-03-05T13:07:26;2.40;99.90
21830;DHT22;11077;50.264;6.798;2023-03-05T13:09:54;2.50;99.90
21830;DHT22;11077;50.264;6.798;2023-03-05T13:12:22;2.50;99.90
21830;DHT22;11077;50.264;6.798;2023-03-05T13:14:57;2.60;99.90
21830;DHT22;11077;50.264;6.798;2023-03-05T13:17:30;2.60;99.90
21830;DHT22;11077;50.264;6.798;2023-03-05T13:20:00;2.60;99.90
21830;DHT22;11077;50.264;6.798;2023-03-05T13:22:32;2.60;99.90
21830;DHT22;11077;50.264;6.798;2023-03-05T13:25:08;2.80;99.90
21830;DHT22;11077;50.264;6.798;2023-03-05T13:27:38;2.80;99.90
21830;DHT22;11077;50.264;6.798;2023-03-05T13:30:19;2.90;99.90
21830;DHT22;11077;50.264;6.798;2023-03-05T13:32:49;2.90;99.90
21830;DHT22;11077;50.264;6.798;2023-03-05T13:35:18;2.90;99.90
21830;DHT22;11077;50.264;6.798;2023-03-05T13:37:47;3.00;99.90
21830;DHT22;11077;50.264;6.798;2023-03-05T13:40:20;3.00;99.90
21830;DHT22;11077;50.264;6.798;2023-03-05T13:42:48;3.10;99.90
21830;DHT22;11077;50.264;6.798;2023-03-05T13:45:24;3.10;99.90
21830;DHT22;11077;50.264;6.798;2023-03-05T13:47:53;3.10;99.90
21830;DHT22;11077;50.264;6.798;2023-03-05T13:50:24;3.00;99.90
21830;DHT22;11077;50.264;6.798;2023-03-05T13:52:53;3.00;99.90
21830;DHT22;11077;50.264;6.798;2023-03-05T13:55:20;2.90;99.90
21830;DHT22;11077;50.264;6.798;2023-03-05T13:57:49;3.00;99.90
21830;DHT22;11077;50.264;6.798;2023-03-05T14:00:29;3.00;99.90
21830;DHT22;11077;50.264;6.798;2023-03-05T14:03:00;3.00;99.90
21830;DHT22;11077;50.264;6.798;2023-03-05T14:05:33;3.00;99.90
21830;DHT22;11077;50.264;6.798;2023-03-05T14:08:02;3.00;99.90
21830;DHT22;11077;50.264;6.798;2023-03-05T14:10:35;3.00;99.90
21830;DHT22;11077;50.264;6.798;2023-03-05T14:13:05;3.00;99.90
21830;DHT22;11077;50.264;6.798;2023-03-05T14:15:37;3.00;99.90
21830;DHT22;11077;50.264;6.798;2023-03-05T14:18:17;3.00;99.90
21830;DHT22;11077;50.264;6.798;2023-03-05T14:20:59;3.00;99.90
21830;DHT22;11077;50.264;6.798;2023-03-05T14:23:36;2.90;99.90
21830;DHT22;11077;50.264;6.798;2023-03-05T14:26:26;2.90;99.90
21830;DHT22;11077;50.264;6.798;2023-03-05T14:28:56;2.80;99.90
21830;DHT22;11077;50.264;6.798;2023-03-05T14:31:26;2.70;99.90
21830;DHT22;11077;50.264;6.798;2023-03-05T14:33:58;2.60;99.90
21830;DHT22;11077;50.264;6.798;2023-03-05T14:36:27;2.60;99.90
21830;DHT22;11077;50.264;6.798;2023-03-05T14:38:56;2.60;99.90
21830;DHT22;11077;50.264;6.798;2023-03-05T14:41:36;2.60;99.90
21830;DHT22;11077;50.264;6.798;2023-03-05T14:44:12;2.60;99.90
21830;DHT22;11077;50.264;6.798;2023-03-05T14:46:40;2.70;99.90
21830;DHT22;11077;50.264;6.798;2023-03-05T14:49:07;2.60;99.90
21830;DHT22;11077;50.264;6.798;2023-03-05T14:51:38;2.60;99.90
21830;DHT22;11077;50.264;6.798;2023-03-05T14:54:17;2.70;99.90
21830;DHT22;11077;50.264;6.798;2023-03-05T14:56:45;2.70;99.90
21830;DHT22;11077;50.264;6.798;2023-03-05T14:59:12;2.80;99.90
21830;DHT22;11077;50.264;6.798;2023-03-05T15:01:40;2.80;99.90
21830;DHT22;11077;50.264;6.798;2023-03-05T15:04:07;2.70;99.90
21830;DHT22;11077;50.264;6.798;2023-03-05T15:06:36;2.70;99.90
21830;DHT22;11077;50.264;6.798;2023-03-05T15:09:04;2.70;99.90
21830;DHT22;11077;50.264;6.798;2023-03-05T15:11:36;2.70;99.90
21830;DHT22;11077;50.264;6.798;2023-03-05T15:14:03;2.80;99.90
21830;DHT22;11077;50.264;6.798;2023-03-05T15:16:30;2.80;99.90
21830;DHT22;11077;50.264;6.798;2023-03-05T15:18:57;2.70;99.90
21830;DHT22;11077;50.264;6.798;2023-03-05T15:21:24;2.70;99.90
21830;DHT22;11077;50.264;6.798;2023-03-05T15:23:52;2.70;99.90
21830;DHT22;11077;50.264;6.798;2023-03-05T15:26:19;2.70;99.90
21830;DHT22;11077;50.264;6.798;2023-03-05T15:28:47;2.70;99.90
21830;DHT22;11077;50.264;6.798;2023-03-05T15:31:15;2.70;99.90
21830;DHT22;11077;50.264;6.798;2023-03-05T15:33:43;2.80;99.90
21830;DHT22;11077;50.264;6.798;2023-03-05T15:36:10;2.80;99.90
21830;DHT22;11077;50.264;6.798;2023-03-05T15:38:38;2.80;99.90
21830;DHT22;11077;50.264;6.798;2023-03-05T15:41:06;2.70;99.90
21830;DHT22;11077;50.264;6.798;2023-03-05T15:43:33;2.60;99.90
21830;DHT22;11077;50.264;6.798;2023-03-05T15:46:03;2.50;99.90
21830;DHT22;11077;50.264;6.798;2023-03-05T15:48:31;2.50;99.90
21830;DHT22;11077;50.264;6.798;2023-03-05T15:50:58;2.40;99.90
21830;DHT22;11077;50.264;6.798;2023-03-05T15:53:26;2.40;99.90
21830;DHT22;11077;50.264;6.798;2023-03-05T15:55:53;2.40;99.90
21830;DHT22;11077;50.264;6.798;2023-03-05T15:58:20;2.40;99.90
21830;DHT22;11077;50.264;6.798;2023-03-05T16:00:47;2.40;99.90
21830;DHT22;11077;50.264;6.798;2023-03-05T16:03:16;2.40;99.90
21830;DHT22;11077;50.264;6.798;2023-03-05T16:05:43;2.40;99.90
21830;DHT22;11077;50.264;6.798;2023-03-05T16:08:10;2.40;99.90
21830;DHT22;11077;50.264;6.798;2023-03-05T16:10:38;2.40;99.90
21830;DHT22;11077;50.264;6.798;2023-03-05T16:13:08;2.40;99.90